sensor_id;sensor_type;location;lat;lon;timestamp;P1;durP1;ratioP1;P2;durP2;ratioP2
52470;SDS011;38382;53.160;7.026;2023-04-23T00:01:00;27.30;;;18.08;;
52470;SDS011;38382;53.160;7.026;2023-04-23T00:03:29;30.05;;;18.90;;
52470;SDS011;38382;53.160;7.026;2023-04-23T00:06:09;26.27;;;17.27;;
52470;SDS011;38382;53.160;7.026;2023-04-23T00:08:39;27.73;;;17.67;;
52470;SDS011;38382;53.160;7.026;2023-04-23T00:11:05;30.40;;;18.75;;
52470;SDS011;38382;53.160;7.026;2023-04-23T00:13:32;32.53;;;19.70;;
52470;SDS011;38382;53.160;7.026;2023-04-23T00:15:58;27.75;;;17.50;;
52470;SDS011;38382;53.160;7.026;2023-04-23T00:18:24;26.23;;;17.45;;
52470;SDS011;38382;53.160;7.026;2023-04-23T00:20:50;25.25;;;16.95;;
52470;SDS011;38382;53.160;7.026;2023-04-23T00:23:16;32.88;;;19.98;;
52470;SDS011;38382;53.160;7.026;2023-04-23T00:25:42;28.15;;;17.65;;
52470;SDS011;38382;53.160;7.026;2023-04-23T00:28:08;32.63;;;21.08;;
52470;SDS011;38382;53.160;7.026;2023-04-23T00:30:33;33.28;;;20.50;;
52470;SDS011;38382;53.160;7.026;2023-04-23T00:32:59;34.60;;;22.05;;
52470;SDS011;38382;53.160;7.026;2023-04-23T00:35:25;34.00;;;21.00;;
52470;SDS011;38382;53.160;7.026;2023-04-23T00:37:51;32.22;;;20.02;;
52470;SDS011;38382;53.160;7.026;2023-04-23T00:40:17;37.03;;;21.98;;
52470;SDS011;38382;53.160;7.026;2023-04-23T00:42:42;50.45;;;25.25;;
52470;SDS011;38382;53.160;7.026;2023-04-23T00:45:09;36.75;;;21.98;;
52470;SDS011;38382;53.160;7.026;2023-04-23T00:47:36;35.10;;;22.08;;
52470;SDS011;38382;53.160;7.026;2023-04-23T00:50:02;43.33;;;25.00;;
52470;SDS011;38382;53.160;7.026;2023-04-23T00:52:28;38.13;;;22.45;;
52470;SDS011;38382;53.160;7.026;2023-04-23T00:54:54;44.08;;;25.00;;
52470;SDS011;38382;53.160;7.026;2023-04-23T00:57:21;38.95;;;24.10;;
52470;SDS011;38382;53.160;7.026;2023-04-23T00:59:47;48.65;;;26.70;;
52470;SDS011;38382;53.160;7.026;2023-04-23T01:02:13;49.03;;;26.42;;
52470;SDS011;38382;53.160;7.026;2023-04-23T01:04:39;38.92;;;22.58;;
52470;SDS011;38382;53.160;7.026;2023-04-23T01:07:07;44.55;;;26.05;;
52470;SDS011;38382;53.160;7.026;2023-04-23T01:09:35;44.03;;;25.20;;
52470;SDS011;38382;53.160;7.026;2023-04-23T01:12:01;44.75;;;24.90;;
52470;SDS011;38382;53.160;7.026;2023-04-23T01:14:29;43.05;;;24.85;;
52470;SDS011;38382;53.160;7.026;2023-04-23T01:16:55;38.67;;;22.27;;
52470;SDS011;38382;53.160;7.026;2023-04-23T01:19:22;42.00;;;23.67;;
52470;SDS011;38382;53.160;7.026;2023-04-23T01:21:48;46.53;;;25.05;;
52470;SDS011;38382;53.160;7.026;2023-04-23T01:24:14;45.95;;;25.13;;
52470;SDS011;38382;53.160;7.026;2023-04-23T01:26:40;42.88;;;23.67;;
52470;SDS011;38382;53.160;7.026;2023-04-23T01:29:06;48.63;;;25.88;;
52470;SDS011;38382;53.160;7.026;2023-04-23T01:31:33;42.47;;;24.85;;
52470;SDS011;38382;53.160;7.026;2023-04-23T01:34:00;48.22;;;25.38;;
52470;SDS011;38382;53.160;7.026;2023-04-23T01:36:27;43.40;;;23.20;;
52470;SDS011;38382;53.160;7.026;2023-04-23T01:38:53;41.38;;;24.40;;
52470;SDS011;38382;53.160;7.026;2023-04-23T01:41:19;46.67;;;25.92;;
52470;SDS011;38382;53.160;7.026;2023-04-23T01:43:45;47.03;;;25.50;;
52470;SDS011;38382;53.160;7.026;2023-04-23T01:46:11;48.08;;;25.15;;
52470;SDS011;38382;53.160;7.026;2023-04-23T01:48:37;42.60;;;23.65;;
52470;SDS011;38382;53.160;7.026;2023-04-23T01:51:03;42.42;;;23.48;;
52470;SDS011;38382;53.160;7.026;2023-04-23T01:53:29;41.50;;;23.38;;
52470;SDS011;38382;53.160;7.026;2023-04-23T01:55:54;40.92;;;23.23;;
52470;SDS011;38382;53.160;7.026;2023-04-23T01:58:21;42.00;;;23.05;;
52470;SDS011;38382;53.160;7.026;2023-04-23T02:00:48;41.72;;;23.48;;
52470;SDS011;38382;53.160;7.026;2023-04-23T02:03:14;46.65;;;23.77;;
52470;SDS011;38382;53.160;7.026;2023-04-23T02:05:40;40.35;;;23.02;;
52470;SDS011;38382;53.160;7.026;2023-04-23T02:08:07;43.38;;;24.13;;
52470;SDS011;38382;53.160;7.026;2023-04-23T02:10:33;44.65;;;25.05;;
52470;SDS011;38382;53.160;7.026;2023-04-23T02:13:00;47.67;;;25.08;;
52470;SDS011;38382;53.160;7.026;2023-04-23T02:15:26;47.00;;;24.38;;
52470;SDS011;38382;53.160;7.026;2023-04-23T02:17:53;53.55;;;26.05;;
52470;SDS011;38382;53.160;7.026;2023-04-23T02:20:19;49.80;;;25.88;;
52470;SDS011;38382;53.160;7.026;2023-04-23T02:22:46;50.97;;;27.05;;
52470;SDS011;38382;53.160;7.026;2023-04-23T02:25:13;49.55;;;25.55;;
52470;SDS011;38382;53.160;7.026;2023-04-23T02:27:40;44.17;;;23.63;;
52470;SDS011;38382;53.160;7.026;2023-04-23T02:30:07;46.63;;;24.45;;
52470;SDS011;38382;53.160;7.026;2023-04-23T02:32:34;46.22;;;25.85;;
52470;SDS011;38382;53.160;7.026;2023-04-23T02:35:00;42.13;;;23.65;;
52470;SDS011;38382;53.160;7.026;2023-04-23T02:37:27;42.60;;;23.00;;
52470;SDS011;38382;53.160;7.026;2023-04-23T02:39:53;50.60;;;26.70;;
52470;SDS011;38382;53.160;7.026;2023-04-23T02:42:18;48.00;;;25.38;;
52470;SDS011;38382;53.160;7.026;2023-04-23T02:44:44;49.13;;;26.08;;
52470;SDS011;38382;53.160;7.026;2023-04-23T02:47:10;40.92;;;23.23;;
52470;SDS011;38382;53.160;7.026;2023-04-23T02:49:36;40.38;;;23.65;;
52470;SDS011;38382;53.160;7.026;2023-04-23T02:52:01;46.17;;;26.17;;
52470;SDS011;38382;53.160;7.026;2023-04-23T02:54:28;42.13;;;24.23;;
52470;SDS011;38382;53.160;7.026;2023-04-23T02:56:53;47.83;;;25.77;;
52470;SDS011;38382;53.160;7.026;2023-04-23T02:59:19;48.35;;;26.90;;
52470;SDS011;38382;53.160;7.026;2023-04-23T03:01:45;48.30;;;27.25;;
52470;SDS011;38382;53.160;7.026;2023-04-23T03:04:10;44.25;;;24.10;;
52470;SDS011;38382;53.160;7.026;2023-04-23T03:06:36;41.70;;;23.73;;
52470;SDS011;38382;53.160;7.026;2023-04-23T03:09:02;42.17;;;23.77;;
52470;SDS011;38382;53.160;7.026;2023-04-23T03:11:28;47.20;;;26.15;;
52470;SDS011;38382;53.160;7.026;2023-04-23T03:13:54;53.40;;;27.83;;
52470;SDS011;38382;53.160;7.026;2023-04-23T03:16:20;44.10;;;25.00;;
52470;SDS011;38382;53.160;7.026;2023-04-23T03:18:45;51.60;;;27.35;;
52470;SDS011;38382;53.160;7.026;2023-04-23T03:21:11;52.05;;;28.00;;
52470;SDS011;38382;53.160;7.026;2023-04-23T03:23:37;53.05;;;28.60;;
52470;SDS011;38382;53.160;7.026;2023-04-23T03:26:03;48.20;;;27.38;;
52470;SDS011;38382;53.160;7.026;2023-04-23T03:28:29;44.30;;;23.92;;
52470;SDS011;38382;53.160;7.026;2023-04-23T03:30:55;54.65;;;28.45;;
52470;SDS011;38382;53.160;7.026;2023-04-23T03:33:21;50.75;;;27.67;;
52470;SDS011;38382;53.160;7.026;2023-04-23T03:35:47;51.42;;;26.50;;
52470;SDS011;38382;53.160;7.026;2023-04-23T03:38:12;46.60;;;26.35;;
52470;SDS011;38382;53.160;7.026;2023-04-23T03:40:38;56.00;;;28.20;;
52470;SDS011;38382;53.160;7.026;2023-04-23T03:43:04;58.40;;;28.17;;
52470;SDS011;38382;53.160;7.026;2023-04-23T03:45:29;51.97;;;26.83;;
52470;SDS011;38382;53.160;7.026;2023-04-23T03:47:56;46.20;;;24.30;;
52470;SDS011;38382;53.160;7.026;2023-04-23T03:50:21;65.70;;;31.08;;
52470;SDS011;38382;53.160;7.026;2023-04-23T03:52:47;60.03;;;30.17;;
52470;SDS011;38382;53.160;7.026;2023-04-23T03:55:13;60.28;;;29.02;;
52470;SDS011;38382;53.160;7.026;2023-04-23T03:57:38;81.03;;;32.53;;
52470;SDS011;38382;53.160;7.026;2023-04-23T04:00:05;59.00;;;29.60;;
52470;SDS011;38382;53.160;7.026;2023-04-23T04:02:36;65.75;;;33.03;;
52470;SDS011;38382;53.160;7.026;2023-04-23T04:05:03;61.97;;;30.77;;
52470;SDS011;38382;53.160;7.026;2023-04-23T04:07:33;62.47;;;30.65;;
52470;SDS011;38382;53.160;7.026;2023-04-23T04:10:01;72.82;;;32.65;;
52470;SDS011;38382;53.160;7.026;2023-04-23T04:12:27;59.85;;;29.48;;
52470;SDS011;38382;53.160;7.026;2023-04-23T04:14:53;66.78;;;31.25;;
52470;SDS011;38382;53.160;7.026;2023-04-23T04:17:19;66.38;;;32.45;;
52470;SDS011;38382;53.160;7.026;2023-04-23T04:19:45;70.80;;;31.83;;
52470;SDS011;38382;53.160;7.026;2023-04-23T04:22:10;70.18;;;33.20;;
52470;SDS011;38382;53.160;7.026;2023-04-23T04:24:36;69.55;;;33.08;;
52470;SDS011;38382;53.160;7.026;2023-04-23T04:27:02;69.72;;;32.90;;
52470;SDS011;38382;53.160;7.026;2023-04-23T04:29:29;76.47;;;34.78;;
52470;SDS011;38382;53.160;7.026;2023-04-23T04:31:56;69.43;;;33.47;;
52470;SDS011;38382;53.160;7.026;2023-04-23T04:34:22;69.55;;;33.92;;
52470;SDS011;38382;53.160;7.026;2023-04-23T04:36:48;71.68;;;34.00;;
52470;SDS011;38382;53.160;7.026;2023-04-23T04:39:18;70.72;;;33.50;;
52470;SDS011;38382;53.160;7.026;2023-04-23T04:41:44;76.30;;;33.58;;
52470;SDS011;38382;53.160;7.026;2023-04-23T04:44:10;74.40;;;35.03;;
52470;SDS011;38382;53.160;7.026;2023-04-23T04:46:38;73.30;;;33.70;;
52470;SDS011;38382;53.160;7.026;2023-04-23T04:49:08;62.42;;;32.30;;
52470;SDS011;38382;53.160;7.026;2023-04-23T04:51:38;55.15;;;27.88;;
52470;SDS011;38382;53.160;7.026;2023-04-23T04:54:05;89.25;;;36.08;;
52470;SDS011;38382;53.160;7.026;2023-04-23T04:56:35;65.78;;;32.97;;
52470;SDS011;38382;53.160;7.026;2023-04-23T04:59:01;92.57;;;36.25;;
52470;SDS011;38382;53.160;7.026;2023-04-23T05:01:27;103.30;;;36.05;;
52470;SDS011;38382;53.160;7.026;2023-04-23T05:03:56;77.72;;;34.10;;
52470;SDS011;38382;53.160;7.026;2023-04-23T05:06:22;88.60;;;36.60;;
52470;SDS011;38382;53.160;7.026;2023-04-23T05:08:48;79.78;;;36.28;;
52470;SDS011;38382;53.160;7.026;2023-04-23T05:11:15;89.88;;;38.30;;
52470;SDS011;38382;53.160;7.026;2023-04-23T05:13:42;99.72;;;39.58;;
52470;SDS011;38382;53.160;7.026;2023-04-23T05:16:11;83.38;;;36.35;;
52470;SDS011;38382;53.160;7.026;2023-04-23T05:18:38;98.72;;;39.15;;
52470;SDS011;38382;53.160;7.026;2023-04-23T05:21:05;108.82;;;42.80;;
52470;SDS011;38382;53.160;7.026;2023-04-23T05:23:31;107.95;;;43.70;;
52470;SDS011;38382;53.160;7.026;2023-04-23T05:25:57;101.68;;;42.97;;
52470;SDS011;38382;53.160;7.026;2023-04-23T05:28:23;114.43;;;42.42;;
52470;SDS011;38382;53.160;7.026;2023-04-23T05:30:49;104.18;;;42.88;;
52470;SDS011;38382;53.160;7.026;2023-04-23T05:33:16;114.22;;;42.45;;
52470;SDS011;38382;53.160;7.026;2023-04-23T05:35:42;141.45;;;45.50;;
52470;SDS011;38382;53.160;7.026;2023-04-23T05:38:08;105.05;;;42.22;;
52470;SDS011;38382;53.160;7.026;2023-04-23T05:40:34;111.75;;;46.58;;
52470;SDS011;38382;53.160;7.026;2023-04-23T05:43:00;105.43;;;42.15;;
52470;SDS011;38382;53.160;7.026;2023-04-23T05:45:26;108.90;;;45.25;;
52470;SDS011;38382;53.160;7.026;2023-04-23T05:47:52;110.95;;;44.33;;
52470;SDS011;38382;53.160;7.026;2023-04-23T05:50:19;94.25;;;41.63;;
52470;SDS011;38382;53.160;7.026;2023-04-23T05:52:45;102.13;;;42.78;;
52470;SDS011;38382;53.160;7.026;2023-04-23T05:55:11;116.72;;;44.40;;
52470;SDS011;38382;53.160;7.026;2023-04-23T05:57:39;109.88;;;43.47;;
52470;SDS011;38382;53.160;7.026;2023-04-23T06:00:06;102.65;;;43.40;;
52470;SDS011;38382;53.160;7.026;2023-04-23T06:02:36;100.10;;;44.17;;
52470;SDS011;38382;53.160;7.026;2023-04-23T06:05:02;100.55;;;45.33;;
52470;SDS011;38382;53.160;7.026;2023-04-23T06:07:28;105.65;;;45.95;;
52470;SDS011;38382;53.160;7.026;2023-04-23T06:09:55;108.60;;;45.53;;
52470;SDS011;38382;53.160;7.026;2023-04-23T06:12:20;104.03;;;43.85;;
52470;SDS011;38382;53.160;7.026;2023-04-23T06:14:46;92.95;;;42.97;;
52470;SDS011;38382;53.160;7.026;2023-04-23T06:17:12;107.65;;;45.42;;
52470;SDS011;38382;53.160;7.026;2023-04-23T06:19:38;94.72;;;43.50;;
52470;SDS011;38382;53.160;7.026;2023-04-23T06:22:03;99.55;;;44.90;;
52470;SDS011;38382;53.160;7.026;2023-04-23T06:24:29;99.05;;;44.13;;
52470;SDS011;38382;53.160;7.026;2023-04-23T06:26:55;102.72;;;45.28;;
52470;SDS011;38382;53.160;7.026;2023-04-23T06:29:21;98.80;;;45.47;;
52470;SDS011;38382;53.160;7.026;2023-04-23T06:31:47;95.93;;;46.20;;
52470;SDS011;38382;53.160;7.026;2023-04-23T06:34:13;88.75;;;42.35;;
52470;SDS011;38382;53.160;7.026;2023-04-23T06:36:39;96.43;;;46.17;;
52470;SDS011;38382;53.160;7.026;2023-04-23T06:39:04;87.22;;;42.90;;
52470;SDS011;38382;53.160;7.026;2023-04-23T06:41:30;89.85;;;43.58;;
52470;SDS011;38382;53.160;7.026;2023-04-23T06:43:56;88.13;;;43.78;;
52470;SDS011;38382;53.160;7.026;2023-04-23T06:46:21;98.47;;;44.90;;
52470;SDS011;38382;53.160;7.026;2023-04-23T06:48:47;86.78;;;42.92;;
52470;SDS011;38382;53.160;7.026;2023-04-23T06:51:13;91.53;;;42.55;;
52470;SDS011;38382;53.160;7.026;2023-04-23T06:53:40;81.10;;;42.22;;
52470;SDS011;38382;53.160;7.026;2023-04-23T06:56:05;85.30;;;43.47;;
52470;SDS011;38382;53.160;7.026;2023-04-23T06:58:32;83.63;;;42.20;;
52470;SDS011;38382;53.160;7.026;2023-04-23T07:00:57;79.63;;;41.25;;
52470;SDS011;38382;53.160;7.026;2023-04-23T07:03:31;83.07;;;42.33;;
52470;SDS011;38382;53.160;7.026;2023-04-23T07:05:57;80.75;;;41.55;;
52470;SDS011;38382;53.160;7.026;2023-04-23T07:08:23;76.53;;;40.00;;
52470;SDS011;38382;53.160;7.026;2023-04-23T07:10:49;75.65;;;38.15;;
52470;SDS011;38382;53.160;7.026;2023-04-23T07:13:16;84.18;;;42.25;;
52470;SDS011;38382;53.160;7.026;2023-04-23T07:15:41;75.43;;;39.65;;
52470;SDS011;38382;53.160;7.026;2023-04-23T07:18:07;75.78;;;40.15;;
52470;SDS011;38382;53.160;7.026;2023-04-23T07:20:33;69.18;;;37.80;;
52470;SDS011;38382;53.160;7.026;2023-04-23T07:22:59;55.55;;;28.15;;
52470;SDS011;38382;53.160;7.026;2023-04-23T07:25:28;60.38;;;37.90;;
52470;SDS011;38382;53.160;7.026;2023-04-23T07:27:54;63.60;;;41.78;;
52470;SDS011;38382;53.160;7.026;2023-04-23T07:30:22;42.33;;;28.65;;
52470;SDS011;38382;53.160;7.026;2023-04-23T07:32:49;53.30;;;35.10;;
52470;SDS011;38382;53.160;7.026;2023-04-23T07:35:14;52.97;;;32.92;;
52470;SDS011;38382;53.160;7.026;2023-04-23T07:37:40;46.33;;;31.30;;
52470;SDS011;38382;53.160;7.026;2023-04-23T07:40:06;81.03;;;52.88;;
52470;SDS011;38382;53.160;7.026;2023-04-23T07:42:33;59.22;;;35.47;;
52470;SDS011;38382;53.160;7.026;2023-04-23T07:44:59;60.60;;;34.60;;
52470;SDS011;38382;53.160;7.026;2023-04-23T07:47:25;53.45;;;30.77;;
52470;SDS011;38382;53.160;7.026;2023-04-23T07:49:51;53.67;;;31.17;;
52470;SDS011;38382;53.160;7.026;2023-04-23T07:52:17;53.38;;;32.47;;
52470;SDS011;38382;53.160;7.026;2023-04-23T07:54:42;53.42;;;30.92;;
52470;SDS011;38382;53.160;7.026;2023-04-23T07:57:08;57.28;;;33.92;;
52470;SDS011;38382;53.160;7.026;2023-04-23T07:59:35;58.85;;;34.05;;
52470;SDS011;38382;53.160;7.026;2023-04-23T08:02:03;51.35;;;31.55;;
52470;SDS011;38382;53.160;7.026;2023-04-23T08:04:29;44.20;;;26.33;;
52470;SDS011;38382;53.160;7.026;2023-04-23T08:06:55;38.42;;;20.98;;
52470;SDS011;38382;53.160;7.026;2023-04-23T08:09:21;48.55;;;31.50;;
52470;SDS011;38382;53.160;7.026;2023-04-23T08:11:46;48.50;;;28.83;;
52470;SDS011;38382;53.160;7.026;2023-04-23T08:14:12;48.72;;;29.20;;
52470;SDS011;38382;53.160;7.026;2023-04-23T08:16:38;53.92;;;33.58;;
52470;SDS011;38382;53.160;7.026;2023-04-23T08:19:04;45.45;;;28.40;;
52470;SDS011;38382;53.160;7.026;2023-04-23T08:21:33;47.35;;;28.50;;
52470;SDS011;38382;53.160;7.026;2023-04-23T08:23:59;46.22;;;28.60;;
52470;SDS011;38382;53.160;7.026;2023-04-23T08:26:26;47.88;;;28.83;;
52470;SDS011;38382;53.160;7.026;2023-04-23T08:28:52;48.15;;;29.55;;
52470;SDS011;38382;53.160;7.026;2023-04-23T08:31:18;50.33;;;35.13;;
52470;SDS011;38382;53.160;7.026;2023-04-23T08:33:44;51.35;;;30.98;;
52470;SDS011;38382;53.160;7.026;2023-04-23T08:36:10;48.90;;;30.10;;
52470;SDS011;38382;53.160;7.026;2023-04-23T08:38:36;50.45;;;30.52;;
52470;SDS011;38382;53.160;7.026;2023-04-23T08:41:01;370.83;;;116.88;;
52470;SDS011;38382;53.160;7.026;2023-04-23T08:43:31;45.33;;;29.10;;
52470;SDS011;38382;53.160;7.026;2023-04-23T08:46:03;46.90;;;29.95;;
52470;SDS011;38382;53.160;7.026;2023-04-23T08:48:29;45.17;;;29.25;;
52470;SDS011;38382;53.160;7.026;2023-04-23T08:50:56;44.10;;;29.60;;
52470;SDS011;38382;53.160;7.026;2023-04-23T08:53:24;41.33;;;27.45;;
52470;SDS011;38382;53.160;7.026;2023-04-23T08:55:52;41.90;;;27.65;;
52470;SDS011;38382;53.160;7.026;2023-04-23T08:58:20;40.65;;;28.38;;
52470;SDS011;38382;53.160;7.026;2023-04-23T09:00:47;44.33;;;28.23;;
52470;SDS011;38382;53.160;7.026;2023-04-23T09:03:15;37.75;;;26.10;;
52470;SDS011;38382;53.160;7.026;2023-04-23T09:05:41;40.90;;;26.90;;
52470;SDS011;38382;53.160;7.026;2023-04-23T09:08:08;41.92;;;26.08;;
52470;SDS011;38382;53.160;7.026;2023-04-23T09:10:36;35.83;;;25.20;;
52470;SDS011;38382;53.160;7.026;2023-04-23T09:13:04;35.75;;;25.10;;
52470;SDS011;38382;53.160;7.026;2023-04-23T09:15:29;36.03;;;24.58;;
52470;SDS011;38382;53.160;7.026;2023-04-23T09:17:56;33.28;;;24.08;;
52470;SDS011;38382;53.160;7.026;2023-04-23T09:20:23;36.35;;;25.00;;
52470;SDS011;38382;53.160;7.026;2023-04-23T09:22:50;33.50;;;24.15;;
52470;SDS011;38382;53.160;7.026;2023-04-23T09:25:20;36.30;;;24.30;;
52470;SDS011;38382;53.160;7.026;2023-04-23T09:27:51;29.83;;;21.25;;
52470;SDS011;38382;53.160;7.026;2023-04-23T09:30:17;32.05;;;22.40;;
52470;SDS011;38382;53.160;7.026;2023-04-23T09:32:44;29.52;;;20.85;;
52470;SDS011;38382;53.160;7.026;2023-04-23T09:35:12;31.05;;;21.98;;
52470;SDS011;38382;53.160;7.026;2023-04-23T09:37:46;29.95;;;19.52;;
52470;SDS011;38382;53.160;7.026;2023-04-23T09:40:17;28.02;;;19.95;;
52470;SDS011;38382;53.160;7.026;2023-04-23T09:42:48;28.40;;;19.27;;
52470;SDS011;38382;53.160;7.026;2023-04-23T09:45:16;31.92;;;19.98;;
52470;SDS011;38382;53.160;7.026;2023-04-23T09:47:49;28.95;;;19.48;;
52470;SDS011;38382;53.160;7.026;2023-04-23T09:50:19;26.23;;;17.58;;
52470;SDS011;38382;53.160;7.026;2023-04-23T09:52:59;26.58;;;17.77;;
52470;SDS011;38382;53.160;7.026;2023-04-23T09:55:29;22.65;;;15.50;;
52470;SDS011;38382;53.160;7.026;2023-04-23T09:57:59;23.05;;;16.60;;
52470;SDS011;38382;53.160;7.026;2023-04-23T10:00:25;23.17;;;15.88;;
52470;SDS011;38382;53.160;7.026;2023-04-23T10:02:58;21.95;;;15.30;;
52470;SDS011;38382;53.160;7.026;2023-04-23T10:05:24;22.23;;;15.02;;
52470;SDS011;38382;53.160;7.026;2023-04-23T10:07:49;20.35;;;15.05;;
52470;SDS011;38382;53.160;7.026;2023-04-23T10:10:16;21.05;;;14.63;;
52470;SDS011;38382;53.160;7.026;2023-04-23T10:12:42;22.77;;;14.50;;
52470;SDS011;38382;53.160;7.026;2023-04-23T10:15:09;19.35;;;12.98;;
52470;SDS011;38382;53.160;7.026;2023-04-23T10:17:36;18.88;;;12.65;;
52470;SDS011;38382;53.160;7.026;2023-04-23T10:20:03;18.02;;;12.63;;
52470;SDS011;38382;53.160;7.026;2023-04-23T10:22:32;19.08;;;12.73;;
52470;SDS011;38382;53.160;7.026;2023-04-23T10:24:59;17.75;;;11.57;;
52470;SDS011;38382;53.160;7.026;2023-04-23T10:27:28;15.95;;;10.30;;
52470;SDS011;38382;53.160;7.026;2023-04-23T10:29:59;15.68;;;10.43;;
52470;SDS011;38382;53.160;7.026;2023-04-23T10:32:25;20.25;;;11.73;;
52470;SDS011;38382;53.160;7.026;2023-04-23T10:34:52;18.17;;;11.30;;
52470;SDS011;38382;53.160;7.026;2023-04-23T10:37:18;18.65;;;12.30;;
52470;SDS011;38382;53.160;7.026;2023-04-23T10:39:46;13.90;;;9.75;;
52470;SDS011;38382;53.160;7.026;2023-04-23T10:42:17;16.73;;;10.02;;
52470;SDS011;38382;53.160;7.026;2023-04-23T10:44:44;15.38;;;9.38;;
52470;SDS011;38382;53.160;7.026;2023-04-23T10:47:11;13.05;;;8.25;;
52470;SDS011;38382;53.160;7.026;2023-04-23T10:49:38;13.65;;;8.30;;
52470;SDS011;38382;53.160;7.026;2023-04-23T10:52:08;13.40;;;7.63;;
52470;SDS011;38382;53.160;7.026;2023-04-23T10:54:39;13.93;;;8.98;;
52470;SDS011;38382;53.160;7.026;2023-04-23T10:57:06;15.00;;;8.05;;
52470;SDS011;38382;53.160;7.026;2023-04-23T10:59:33;12.55;;;7.40;;
52470;SDS011;38382;53.160;7.026;2023-04-23T11:02:07;11.15;;;6.55;;
52470;SDS011;38382;53.160;7.026;2023-04-23T11:04:38;12.73;;;7.47;;
52470;SDS011;38382;53.160;7.026;2023-04-23T11:07:07;11.43;;;7.20;;
52470;SDS011;38382;53.160;7.026;2023-04-23T11:12:04;9.88;;;6.43;;
52470;SDS011;38382;53.160;7.026;2023-04-23T11:14:44;12.43;;;6.38;;
52470;SDS011;38382;53.160;7.026;2023-04-23T11:17:12;9.27;;;5.40;;
52470;SDS011;38382;53.160;7.026;2023-04-23T11:20:03;12.52;;;6.20;;
52470;SDS011;38382;53.160;7.026;2023-04-23T11:22:37;9.00;;;5.93;;
52470;SDS011;38382;53.160;7.026;2023-04-23T11:25:08;8.75;;;4.88;;
52470;SDS011;38382;53.160;7.026;2023-04-23T11:27:37;8.35;;;4.93;;
52470;SDS011;38382;53.160;7.026;2023-04-23T11:30:04;11.20;;;4.63;;
52470;SDS011;38382;53.160;7.026;2023-04-23T11:32:36;9.30;;;4.55;;
52470;SDS011;38382;53.160;7.026;2023-04-23T11:35:02;8.13;;;3.78;;
52470;SDS011;38382;53.160;7.026;2023-04-23T11:37:29;7.93;;;3.72;;
52470;SDS011;38382;53.160;7.026;2023-04-23T11:39:55;9.75;;;4.32;;
52470;SDS011;38382;53.160;7.026;2023-04-23T11:42:21;7.68;;;3.97;;
52470;SDS011;38382;53.160;7.026;2023-04-23T11:44:47;9.13;;;3.60;;
52470;SDS011;38382;53.160;7.026;2023-04-23T11:47:13;9.30;;;3.60;;
52470;SDS011;38382;53.160;7.026;2023-04-23T11:49:43;10.05;;;3.28;;
52470;SDS011;38382;53.160;7.026;2023-04-23T11:52:09;6.75;;;3.03;;
52470;SDS011;38382;53.160;7.026;2023-04-23T11:54:35;8.82;;;2.85;;
52470;SDS011;38382;53.160;7.026;2023-04-23T11:57:03;5.95;;;2.58;;
52470;SDS011;38382;53.160;7.026;2023-04-23T11:59:30;6.05;;;2.65;;
52470;SDS011;38382;53.160;7.026;2023-04-23T12:01:56;7.97;;;2.63;;
52470;SDS011;38382;53.160;7.026;2023-04-23T12:04:24;10.23;;;3.17;;
52470;SDS011;38382;53.160;7.026;2023-04-23T12:06:54;7.68;;;3.10;;
52470;SDS011;38382;53.160;7.026;2023-04-23T12:09:22;9.27;;;3.00;;
52470;SDS011;38382;53.160;7.026;2023-04-23T12:11:49;7.25;;;2.70;;
52470;SDS011;38382;53.160;7.026;2023-04-23T12:14:15;6.78;;;2.50;;
52470;SDS011;38382;53.160;7.026;2023-04-23T12:16:43;9.18;;;2.78;;
52470;SDS011;38382;53.160;7.026;2023-04-23T12:19:14;7.65;;;2.40;;
52470;SDS011;38382;53.160;7.026;2023-04-23T12:24:18;6.80;;;2.30;;
52470;SDS011;38382;53.160;7.026;2023-04-23T12:26:52;6.07;;;2.20;;
52470;SDS011;38382;53.160;7.026;2023-04-23T12:29:23;5.40;;;2.22;;
52470;SDS011;38382;53.160;7.026;2023-04-23T12:31:50;7.30;;;2.70;;
52470;SDS011;38382;53.160;7.026;2023-04-23T12:34:17;5.45;;;1.92;;
52470;SDS011;38382;53.160;7.026;2023-04-23T12:36:51;5.85;;;2.10;;
52470;SDS011;38382;53.160;7.026;2023-04-23T12:41:50;6.07;;;2.20;;
52470;SDS011;38382;53.160;7.026;2023-04-23T12:44:17;6.68;;;2.03;;
52470;SDS011;38382;53.160;7.026;2023-04-23T12:46:44;5.07;;;1.75;;
52470;SDS011;38382;53.160;7.026;2023-04-23T12:49:10;5.97;;;1.85;;
52470;SDS011;38382;53.160;7.026;2023-04-23T12:51:36;4.65;;;1.52;;
52470;SDS011;38382;53.160;7.026;2023-04-23T12:54:02;6.13;;;1.80;;
52470;SDS011;38382;53.160;7.026;2023-04-23T12:56:28;8.73;;;2.00;;
52470;SDS011;38382;53.160;7.026;2023-04-23T12:58:53;6.32;;;2.00;;
52470;SDS011;38382;53.160;7.026;2023-04-23T13:01:19;5.03;;;2.00;;
52470;SDS011;38382;53.160;7.026;2023-04-23T13:03:45;4.88;;;1.92;;
52470;SDS011;38382;53.160;7.026;2023-04-23T13:06:11;8.25;;;1.90;;
52470;SDS011;38382;53.160;7.026;2023-04-23T13:08:37;4.10;;;1.63;;
52470;SDS011;38382;53.160;7.026;2023-04-23T13:11:03;4.93;;;1.60;;
52470;SDS011;38382;53.160;7.026;2023-04-23T13:13:29;4.63;;;1.90;;
52470;SDS011;38382;53.160;7.026;2023-04-23T13:15:54;6.38;;;1.95;;
52470;SDS011;38382;53.160;7.026;2023-04-23T13:18:20;5.85;;;1.80;;
52470;SDS011;38382;53.160;7.026;2023-04-23T13:20:46;6.28;;;1.90;;
52470;SDS011;38382;53.160;7.026;2023-04-23T13:23:12;6.38;;;1.90;;
52470;SDS011;38382;53.160;7.026;2023-04-23T13:25:38;5.78;;;1.85;;
52470;SDS011;38382;53.160;7.026;2023-04-23T13:28:04;4.57;;;1.90;;
52470;SDS011;38382;53.160;7.026;2023-04-23T13:30:30;5.18;;;1.95;;
52470;SDS011;38382;53.160;7.026;2023-04-23T13:32:56;7.80;;;2.22;;
52470;SDS011;38382;53.160;7.026;2023-04-23T13:35:23;5.53;;;2.13;;
52470;SDS011;38382;53.160;7.026;2023-04-23T13:37:49;5.63;;;2.03;;
52470;SDS011;38382;53.160;7.026;2023-04-23T13:40:15;5.43;;;1.90;;
52470;SDS011;38382;53.160;7.026;2023-04-23T13:42:41;3.80;;;1.60;;
52470;SDS011;38382;53.160;7.026;2023-04-23T13:45:06;5.53;;;1.92;;
52470;SDS011;38382;53.160;7.026;2023-04-23T13:47:32;3.78;;;1.70;;
52470;SDS011;38382;53.160;7.026;2023-04-23T13:50:02;5.45;;;1.90;;
52470;SDS011;38382;53.160;7.026;2023-04-23T13:52:30;4.72;;;1.90;;
52470;SDS011;38382;53.160;7.026;2023-04-23T13:54:57;4.13;;;1.60;;
52470;SDS011;38382;53.160;7.026;2023-04-23T13:57:25;5.28;;;2.20;;
52470;SDS011;38382;53.160;7.026;2023-04-23T13:59:51;4.85;;;1.85;;
52470;SDS011;38382;53.160;7.026;2023-04-23T14:02:19;6.18;;;1.80;;
52470;SDS011;38382;53.160;7.026;2023-04-23T14:04:45;4.57;;;1.90;;
52470;SDS011;38382;53.160;7.026;2023-04-23T14:07:11;5.45;;;1.77;;
52470;SDS011;38382;53.160;7.026;2023-04-23T14:09:37;6.10;;;1.80;;
52470;SDS011;38382;53.160;7.026;2023-04-23T14:12:03;6.95;;;1.83;;
52470;SDS011;38382;53.160;7.026;2023-04-23T14:14:29;4.65;;;1.60;;
52470;SDS011;38382;53.160;7.026;2023-04-23T14:16:55;6.75;;;2.08;;
52470;SDS011;38382;53.160;7.026;2023-04-23T14:19:21;4.35;;;1.60;;
52470;SDS011;38382;53.160;7.026;2023-04-23T14:21:46;6.43;;;1.90;;
52470;SDS011;38382;53.160;7.026;2023-04-23T14:24:16;5.95;;;2.05;;
52470;SDS011;38382;53.160;7.026;2023-04-23T14:26:46;5.93;;;1.70;;
52470;SDS011;38382;53.160;7.026;2023-04-23T14:31:51;5.57;;;2.08;;
52470;SDS011;38382;53.160;7.026;2023-04-23T14:34:17;5.18;;;1.65;;